sensor_id;sensor_type;location;lat;lon;timestamp;P1;durP1;ratioP1;P2;durP2;ratioP2
34982;SDS011;21187;50.976;13.720;2023-12-07T00:02:10;14.35;;;8.18;;
34982;SDS011;21187;50.976;13.720;2023-12-07T00:07:14;15.80;;;8.68;;
34982;SDS011;21187;50.976;13.720;2023-12-07T00:12:15;15.45;;;8.50;;
34982;SDS011;21187;50.976;13.720;2023-12-07T00:17:17;15.80;;;8.88;;
34982;SDS011;21187;50.976;13.720;2023-12-07T00:22:19;14.63;;;8.43;;
34982;SDS011;21187;50.976;13.720;2023-12-07T00:27:22;15.43;;;9.27;;
34982;SDS011;21187;50.976;13.720;2023-12-07T00:32:24;15.18;;;8.15;;
34982;SDS011;21187;50.976;13.720;2023-12-07T00:37:27;15.70;;;8.75;;
34982;SDS011;21187;50.976;13.720;2023-12-07T00:42:29;15.32;;;8.65;;
34982;SDS011;21187;50.976;13.720;2023-12-07T00:47:31;16.80;;;8.88;;
34982;SDS011;21187;50.976;13.720;2023-12-07T00:52:33;15.23;;;9.05;;
34982;SDS011;21187;50.976;13.720;2023-12-07T00:57:35;18.80;;;9.57;;
34982;SDS011;21187;50.976;13.720;2023-12-07T01:02:37;21.02;;;10.35;;
34982;SDS011;21187;50.976;13.720;2023-12-07T01:07:39;14.85;;;8.43;;
34982;SDS011;21187;50.976;13.720;2023-12-07T01:12:40;18.05;;;10.18;;
34982;SDS011;21187;50.976;13.720;2023-12-07T01:17:42;20.33;;;9.52;;
34982;SDS011;21187;50.976;13.720;2023-12-07T01:22:44;22.20;;;10.43;;
34982;SDS011;21187;50.976;13.720;2023-12-07T01:27:47;21.83;;;11.45;;
34982;SDS011;21187;50.976;13.720;2023-12-07T01:32:50;20.48;;;10.75;;
34982;SDS011;21187;50.976;13.720;2023-12-07T01:37:52;20.98;;;11.70;;
34982;SDS011;21187;50.976;13.720;2023-12-07T01:42:54;21.90;;;11.43;;
34982;SDS011;21187;50.976;13.720;2023-12-07T01:47:56;23.13;;;12.18;;
34982;SDS011;21187;50.976;13.720;2023-12-07T01:53:01;20.88;;;10.75;;
34982;SDS011;21187;50.976;13.720;2023-12-07T01:58:07;21.75;;;10.82;;
34982;SDS011;21187;50.976;13.720;2023-12-07T02:03:09;25.05;;;11.40;;
34982;SDS011;21187;50.976;13.720;2023-12-07T02:08:11;22.95;;;12.25;;
34982;SDS011;21187;50.976;13.720;2023-12-07T02:13:13;26.45;;;12.30;;
34982;SDS011;21187;50.976;13.720;2023-12-07T02:18:37;25.13;;;12.05;;
34982;SDS011;21187;50.976;13.720;2023-12-07T02:23:46;24.13;;;11.93;;
34982;SDS011;21187;50.976;13.720;2023-12-07T02:28:53;24.02;;;12.20;;
34982;SDS011;21187;50.976;13.720;2023-12-07T02:33:55;22.30;;;11.32;;
34982;SDS011;21187;50.976;13.720;2023-12-07T02:38:58;24.95;;;11.82;;
34982;SDS011;21187;50.976;13.720;2023-12-07T02:44:03;22.13;;;11.23;;
34982;SDS011;21187;50.976;13.720;2023-12-07T02:49:05;22.55;;;11.07;;
34982;SDS011;21187;50.976;13.720;2023-12-07T02:54:07;19.92;;;10.77;;
34982;SDS011;21187;50.976;13.720;2023-12-07T02:59:09;24.00;;;11.73;;
34982;SDS011;21187;50.976;13.720;2023-12-07T03:04:11;22.23;;;11.10;;
34982;SDS011;21187;50.976;13.720;2023-12-07T03:09:13;27.00;;;11.35;;
34982;SDS011;21187;50.976;13.720;2023-12-07T03:14:15;25.15;;;12.13;;
34982;SDS011;21187;50.976;13.720;2023-12-07T03:19:17;21.25;;;11.88;;
34982;SDS011;21187;50.976;13.720;2023-12-07T03:24:19;23.35;;;11.77;;
34982;SDS011;21187;50.976;13.720;2023-12-07T03:29:20;24.77;;;11.55;;
34982;SDS011;21187;50.976;13.720;2023-12-07T03:34:22;23.95;;;11.75;;
34982;SDS011;21187;50.976;13.720;2023-12-07T03:39:24;21.08;;;10.38;;
34982;SDS011;21187;50.976;13.720;2023-12-07T03:44:27;26.20;;;12.30;;
34982;SDS011;21187;50.976;13.720;2023-12-07T03:49:29;23.77;;;11.95;;
34982;SDS011;21187;50.976;13.720;2023-12-07T03:54:31;25.17;;;12.60;;
34982;SDS011;21187;50.976;13.720;2023-12-07T03:59:35;26.92;;;12.93;;
34982;SDS011;21187;50.976;13.720;2023-12-07T04:04:37;27.00;;;12.27;;
34982;SDS011;21187;50.976;13.720;2023-12-07T04:09:40;27.10;;;12.32;;
34982;SDS011;21187;50.976;13.720;2023-12-07T04:14:41;26.33;;;11.32;;
34982;SDS011;21187;50.976;13.720;2023-12-07T04:19:43;23.77;;;11.75;;
34982;SDS011;21187;50.976;13.720;2023-12-07T04:24:45;19.80;;;10.38;;
34982;SDS011;21187;50.976;13.720;2023-12-07T04:29:47;22.83;;;10.95;;
34982;SDS011;21187;50.976;13.720;2023-12-07T04:34:49;21.55;;;10.75;;
34982;SDS011;21187;50.976;13.720;2023-12-07T04:39:51;20.90;;;10.82;;
34982;SDS011;21187;50.976;13.720;2023-12-07T04:44:53;20.60;;;10.70;;
34982;SDS011;21187;50.976;13.720;2023-12-07T04:49:55;23.83;;;11.35;;
34982;SDS011;21187;50.976;13.720;2023-12-07T04:54:57;24.23;;;11.27;;
34982;SDS011;21187;50.976;13.720;2023-12-07T04:59:58;21.08;;;10.80;;
34982;SDS011;21187;50.976;13.720;2023-12-07T05:05:00;24.70;;;11.00;;
34982;SDS011;21187;50.976;13.720;2023-12-07T05:10:02;22.70;;;10.60;;
34982;SDS011;21187;50.976;13.720;2023-12-07T05:15:05;22.92;;;11.10;;
34982;SDS011;21187;50.976;13.720;2023-12-07T05:20:08;19.27;;;10.43;;
34982;SDS011;21187;50.976;13.720;2023-12-07T05:25:10;26.05;;;11.75;;
34982;SDS011;21187;50.976;13.720;2023-12-07T05:30:12;23.50;;;10.73;;
34982;SDS011;21187;50.976;13.720;2023-12-07T05:35:16;24.65;;;11.15;;
34982;SDS011;21187;50.976;13.720;2023-12-07T05:40:18;22.90;;;11.23;;
34982;SDS011;21187;50.976;13.720;2023-12-07T05:45:20;24.80;;;11.75;;
34982;SDS011;21187;50.976;13.720;2023-12-07T05:50:22;25.27;;;12.27;;
34982;SDS011;21187;50.976;13.720;2023-12-07T05:55:24;29.85;;;11.88;;
34982;SDS011;21187;50.976;13.720;2023-12-07T06:00:26;22.52;;;11.57;;
34982;SDS011;21187;50.976;13.720;2023-12-07T06:05:28;25.30;;;12.18;;
34982;SDS011;21187;50.976;13.720;2023-12-07T06:10:30;30.75;;;12.07;;
34982;SDS011;21187;50.976;13.720;2023-12-07T06:15:33;25.92;;;12.07;;
34982;SDS011;21187;50.976;13.720;2023-12-07T06:20:35;29.15;;;13.13;;
34982;SDS011;21187;50.976;13.720;2023-12-07T06:25:37;24.27;;;11.43;;
34982;SDS011;21187;50.976;13.720;2023-12-07T06:30:39;30.85;;;13.27;;
34982;SDS011;21187;50.976;13.720;2023-12-07T06:35:41;26.50;;;13.02;;
34982;SDS011;21187;50.976;13.720;2023-12-07T06:40:43;45.15;;;15.70;;
34982;SDS011;21187;50.976;13.720;2023-12-07T06:45:45;28.38;;;13.45;;
34982;SDS011;21187;50.976;13.720;2023-12-07T06:50:46;26.77;;;13.13;;
34982;SDS011;21187;50.976;13.720;2023-12-07T06:55:49;24.80;;;12.68;;
34982;SDS011;21187;50.976;13.720;2023-12-07T07:00:51;30.17;;;13.40;;
34982;SDS011;21187;50.976;13.720;2023-12-07T07:05:56;27.63;;;12.00;;
34982;SDS011;21187;50.976;13.720;2023-12-07T07:10:58;31.02;;;13.60;;
34982;SDS011;21187;50.976;13.720;2023-12-07T07:15:59;24.48;;;12.45;;
34982;SDS011;21187;50.976;13.720;2023-12-07T07:21:01;30.98;;;13.32;;
34982;SDS011;21187;50.976;13.720;2023-12-07T07:26:05;26.70;;;12.00;;
34982;SDS011;21187;50.976;13.720;2023-12-07T07:31:07;26.98;;;12.23;;
34982;SDS011;21187;50.976;13.720;2023-12-07T07:36:09;28.70;;;13.57;;
34982;SDS011;21187;50.976;13.720;2023-12-07T07:41:12;24.67;;;12.52;;
34982;SDS011;21187;50.976;13.720;2023-12-07T07:46:14;27.48;;;12.80;;
34982;SDS011;21187;50.976;13.720;2023-12-07T07:51:16;25.45;;;12.38;;
34982;SDS011;21187;50.976;13.720;2023-12-07T07:56:18;28.35;;;11.88;;
34982;SDS011;21187;50.976;13.720;2023-12-07T08:01:20;29.02;;;13.10;;
34982;SDS011;21187;50.976;13.720;2023-12-07T08:06:22;27.58;;;12.93;;
34982;SDS011;21187;50.976;13.720;2023-12-07T08:11:24;26.15;;;12.45;;
34982;SDS011;21187;50.976;13.720;2023-12-07T08:16:26;24.90;;;12.27;;
34982;SDS011;21187;50.976;13.720;2023-12-07T08:21:29;27.92;;;12.88;;
34982;SDS011;21187;50.976;13.720;2023-12-07T08:26:32;28.55;;;13.95;;
34982;SDS011;21187;50.976;13.720;2023-12-07T08:31:34;25.02;;;12.18;;
34982;SDS011;21187;50.976;13.720;2023-12-07T08:36:36;30.42;;;12.80;;
34982;SDS011;21187;50.976;13.720;2023-12-07T08:41:37;31.20;;;13.05;;
34982;SDS011;21187;50.976;13.720;2023-12-07T08:46:39;28.75;;;13.02;;
34982;SDS011;21187;50.976;13.720;2023-12-07T08:51:41;27.27;;;12.98;;
34982;SDS011;21187;50.976;13.720;2023-12-07T08:57:03;29.15;;;12.70;;
34982;SDS011;21187;50.976;13.720;2023-12-07T09:02:05;24.55;;;11.95;;
34982;SDS011;21187;50.976;13.720;2023-12-07T09:07:07;31.85;;;15.20;;
34982;SDS011;21187;50.976;13.720;2023-12-07T09:12:10;29.63;;;13.85;;
34982;SDS011;21187;50.976;13.720;2023-12-07T09:17:12;29.27;;;14.77;;
34982;SDS011;21187;50.976;13.720;2023-12-07T09:22:14;29.05;;;13.57;;
34982;SDS011;21187;50.976;13.720;2023-12-07T09:27:26;28.95;;;13.18;;
34982;SDS011;21187;50.976;13.720;2023-12-07T09:32:28;23.65;;;11.25;;
34982;SDS011;21187;50.976;13.720;2023-12-07T09:37:36;25.08;;;12.85;;
34982;SDS011;21187;50.976;13.720;2023-12-07T09:42:39;27.95;;;13.25;;
34982;SDS011;21187;50.976;13.720;2023-12-07T09:47:42;29.27;;;13.02;;
34982;SDS011;21187;50.976;13.720;2023-12-07T09:52:49;26.95;;;13.55;;
34982;SDS011;21187;50.976;13.720;2023-12-07T09:58:07;28.17;;;13.25;;
34982;SDS011;21187;50.976;13.720;2023-12-07T10:03:19;29.55;;;14.18;;
34982;SDS011;21187;50.976;13.720;2023-12-07T10:08:30;27.55;;;13.07;;
34982;SDS011;21187;50.976;13.720;2023-12-07T10:13:34;29.40;;;13.23;;
34982;SDS011;21187;50.976;13.720;2023-12-07T10:18:37;29.92;;;13.15;;
34982;SDS011;21187;50.976;13.720;2023-12-07T10:23:45;29.45;;;13.32;;
34982;SDS011;21187;50.976;13.720;2023-12-07T10:28:50;29.20;;;13.73;;
34982;SDS011;21187;50.976;13.720;2023-12-07T10:33:55;27.30;;;13.35;;
34982;SDS011;21187;50.976;13.720;2023-12-07T10:38:58;29.02;;;11.57;;
34982;SDS011;21187;50.976;13.720;2023-12-07T10:44:00;26.52;;;12.07;;
34982;SDS011;21187;50.976;13.720;2023-12-07T10:49:06;25.35;;;11.13;;
34982;SDS011;21187;50.976;13.720;2023-12-07T10:54:27;31.73;;;11.68;;
34982;SDS011;21187;50.976;13.720;2023-12-07T10:59:36;28.00;;;13.25;;
34982;SDS011;21187;50.976;13.720;2023-12-07T11:04:41;32.22;;;16.38;;
34982;SDS011;21187;50.976;13.720;2023-12-07T11:09:47;29.73;;;13.93;;
34982;SDS011;21187;50.976;13.720;2023-12-07T11:14:54;30.65;;;13.48;;
34982;SDS011;21187;50.976;13.720;2023-12-07T11:19:56;28.65;;;13.73;;
34982;SDS011;21187;50.976;13.720;2023-12-07T11:24:59;33.28;;;15.13;;
34982;SDS011;21187;50.976;13.720;2023-12-07T11:30:03;34.83;;;15.38;;
34982;SDS011;21187;50.976;13.720;2023-12-07T11:35:05;32.97;;;14.70;;
34982;SDS011;21187;50.976;13.720;2023-12-07T11:40:07;31.92;;;14.10;;
34982;SDS011;21187;50.976;13.720;2023-12-07T11:45:09;28.48;;;12.82;;
34982;SDS011;21187;50.976;13.720;2023-12-07T11:50:11;27.55;;;13.13;;
34982;SDS011;21187;50.976;13.720;2023-12-07T11:55:13;28.98;;;14.52;;
34982;SDS011;21187;50.976;13.720;2023-12-07T12:00:15;28.30;;;11.93;;
34982;SDS011;21187;50.976;13.720;2023-12-07T12:05:18;32.55;;;14.73;;
34982;SDS011;21187;50.976;13.720;2023-12-07T12:10:21;28.23;;;12.82;;
34982;SDS011;21187;50.976;13.720;2023-12-07T12:15:25;31.00;;;13.00;;
34982;SDS011;21187;50.976;13.720;2023-12-07T12:20:27;30.92;;;13.82;;
34982;SDS011;21187;50.976;13.720;2023-12-07T12:25:30;28.55;;;13.45;;
34982;SDS011;21187;50.976;13.720;2023-12-07T12:30:33;27.05;;;13.20;;
34982;SDS011;21187;50.976;13.720;2023-12-07T12:35:36;33.70;;;14.68;;
34982;SDS011;21187;50.976;13.720;2023-12-07T12:40:37;31.17;;;15.10;;
34982;SDS011;21187;50.976;13.720;2023-12-07T12:45:39;30.77;;;13.30;;
34982;SDS011;21187;50.976;13.720;2023-12-07T12:50:41;27.08;;;12.63;;
34982;SDS011;21187;50.976;13.720;2023-12-07T12:55:43;29.80;;;14.32;;
34982;SDS011;21187;50.976;13.720;2023-12-07T13:00:48;27.08;;;13.27;;
34982;SDS011;21187;50.976;13.720;2023-12-07T13:05:50;27.83;;;12.52;;
34982;SDS011;21187;50.976;13.720;2023-12-07T13:10:52;29.83;;;13.60;;
34982;SDS011;21187;50.976;13.720;2023-12-07T13:15:54;25.08;;;12.70;;
34982;SDS011;21187;50.976;13.720;2023-12-07T13:20:56;31.45;;;13.45;;
34982;SDS011;21187;50.976;13.720;2023-12-07T13:25:58;25.30;;;12.85;;
34982;SDS011;21187;50.976;13.720;2023-12-07T13:31:00;31.30;;;15.32;;
34982;SDS011;21187;50.976;13.720;2023-12-07T13:36:02;27.77;;;14.45;;
34982;SDS011;21187;50.976;13.720;2023-12-07T13:41:07;31.98;;;15.07;;
34982;SDS011;21187;50.976;13.720;2023-12-07T13:46:09;29.23;;;12.93;;
34982;SDS011;21187;50.976;13.720;2023-12-07T13:51:12;29.45;;;12.98;;
34982;SDS011;21187;50.976;13.720;2023-12-07T13:56:14;26.30;;;12.85;;
34982;SDS011;21187;50.976;13.720;2023-12-07T14:01:17;25.23;;;11.82;;
34982;SDS011;21187;50.976;13.720;2023-12-07T14:06:22;27.33;;;12.27;;
34982;SDS011;21187;50.976;13.720;2023-12-07T14:11:29;24.40;;;11.50;;
34982;SDS011;21187;50.976;13.720;2023-12-07T14:16:31;22.70;;;11.73;;
34982;SDS011;21187;50.976;13.720;2023-12-07T14:21:53;24.73;;;10.45;;
34982;SDS011;21187;50.976;13.720;2023-12-07T14:26:56;31.10;;;12.32;;
34982;SDS011;21187;50.976;13.720;2023-12-07T14:32:00;26.92;;;11.70;;
34982;SDS011;21187;50.976;13.720;2023-12-07T14:37:05;31.15;;;13.10;;
34982;SDS011;21187;50.976;13.720;2023-12-07T14:42:08;32.72;;;13.05;;
34982;SDS011;21187;50.976;13.720;2023-12-07T14:47:10;27.85;;;13.63;;
34982;SDS011;21187;50.976;13.720;2023-12-07T14:52:12;30.48;;;13.20;;
34982;SDS011;21187;50.976;13.720;2023-12-07T14:57:14;27.08;;;13.13;;
34982;SDS011;21187;50.976;13.720;2023-12-07T15:02:16;28.70;;;13.13;;
34982;SDS011;21187;50.976;13.720;2023-12-07T15:07:18;30.38;;;14.00;;
34982;SDS011;21187;50.976;13.720;2023-12-07T15:12:20;31.35;;;14.23;;
34982;SDS011;21187;50.976;13.720;2023-12-07T15:17:22;29.33;;;13.40;;
34982;SDS011;21187;50.976;13.720;2023-12-07T15:22:24;28.48;;;12.90;;
34982;SDS011;21187;50.976;13.720;2023-12-07T15:27:26;29.02;;;13.18;;
34982;SDS011;21187;50.976;13.720;2023-12-07T15:32:29;31.23;;;15.10;;
34982;SDS011;21187;50.976;13.720;2023-12-07T15:37:31;33.35;;;14.38;;
34982;SDS011;21187;50.976;13.720;2023-12-07T15:42:32;32.65;;;13.80;;
34982;SDS011;21187;50.976;13.720;2023-12-07T15:47:35;32.47;;;14.10;;
34982;SDS011;21187;50.976;13.720;2023-12-07T15:52:37;31.95;;;14.70;;
34982;SDS011;21187;50.976;13.720;2023-12-07T15:57:39;38.05;;;15.75;;
34982;SDS011;21187;50.976;13.720;2023-12-07T16:02:41;34.70;;;16.40;;
34982;SDS011;21187;50.976;13.720;2023-12-07T16:07:44;34.33;;;16.45;;
34982;SDS011;21187;50.976;13.720;2023-12-07T16:12:46;36.85;;;16.27;;
34982;SDS011;21187;50.976;13.720;2023-12-07T16:17:48;32.55;;;14.77;;
34982;SDS011;21187;50.976;13.720;2023-12-07T16:22:51;37.42;;;15.48;;
34982;SDS011;21187;50.976;13.720;2023-12-07T16:27:53;33.60;;;15.70;;
34982;SDS011;21187;50.976;13.720;2023-12-07T16:32:55;35.22;;;15.93;;
34982;SDS011;21187;50.976;13.720;2023-12-07T16:37:57;36.10;;;14.45;;
34982;SDS011;21187;50.976;13.720;2023-12-07T16:43:00;36.75;;;15.98;;
34982;SDS011;21187;50.976;13.720;2023-12-07T16:48:02;31.08;;;14.20;;
34982;SDS011;21187;50.976;13.720;2023-12-07T16:53:04;31.27;;;14.93;;
34982;SDS011;21187;50.976;13.720;2023-12-07T16:58:07;39.40;;;17.60;;
34982;SDS011;21187;50.976;13.720;2023-12-07T17:03:11;32.42;;;15.35;;
34982;SDS011;21187;50.976;13.720;2023-12-07T17:08:14;39.92;;;17.33;;
34982;SDS011;21187;50.976;13.720;2023-12-07T17:13:21;35.47;;;17.63;;
34982;SDS011;21187;50.976;13.720;2023-12-07T17:18:23;47.35;;;20.10;;
34982;SDS011;21187;50.976;13.720;2023-12-07T17:23:25;45.45;;;19.27;;
34982;SDS011;21187;50.976;13.720;2023-12-07T17:28:27;35.50;;;16.58;;
34982;SDS011;21187;50.976;13.720;2023-12-07T17:33:29;48.97;;;20.58;;
34982;SDS011;21187;50.976;13.720;2023-12-07T17:38:32;38.03;;;17.40;;
34982;SDS011;21187;50.976;13.720;2023-12-07T17:43:34;39.50;;;14.55;;
34982;SDS011;21187;50.976;13.720;2023-12-07T17:48:36;35.85;;;15.00;;
34982;SDS011;21187;50.976;13.720;2023-12-07T17:53:39;46.80;;;20.42;;
34982;SDS011;21187;50.976;13.720;2023-12-07T17:58:41;49.47;;;19.77;;
34982;SDS011;21187;50.976;13.720;2023-12-07T18:03:43;41.35;;;21.15;;
34982;SDS011;21187;50.976;13.720;2023-12-07T18:08:46;67.72;;;47.15;;
34982;SDS011;21187;50.976;13.720;2023-12-07T18:13:48;35.60;;;19.73;;
34982;SDS011;21187;50.976;13.720;2023-12-07T18:18:51;28.92;;;12.88;;
34982;SDS011;21187;50.976;13.720;2023-12-07T18:23:53;29.40;;;14.10;;
34982;SDS011;21187;50.976;13.720;2023-12-07T18:28:56;33.45;;;14.27;;
34982;SDS011;21187;50.976;13.720;2023-12-07T18:33:58;38.15;;;17.90;;
34982;SDS011;21187;50.976;13.720;2023-12-07T18:39:02;34.88;;;16.35;;
34982;SDS011;21187;50.976;13.720;2023-12-07T18:44:04;33.00;;;14.90;;
34982;SDS011;21187;50.976;13.720;2023-12-07T18:49:06;30.92;;;13.75;;
34982;SDS011;21187;50.976;13.720;2023-12-07T18:54:08;28.58;;;11.80;;
34982;SDS011;21187;50.976;13.720;2023-12-07T18:59:10;27.80;;;12.88;;
34982;SDS011;21187;50.976;13.720;2023-12-07T19:04:13;24.75;;;12.07;;
34982;SDS011;21187;50.976;13.720;2023-12-07T19:09:15;26.98;;;12.80;;
34982;SDS011;21187;50.976;13.720;2023-12-07T19:14:21;24.08;;;11.32;;
34982;SDS011;21187;50.976;13.720;2023-12-07T19:19:23;28.17;;;12.65;;
34982;SDS011;21187;50.976;13.720;2023-12-07T19:24:26;22.88;;;11.32;;
34982;SDS011;21187;50.976;13.720;2023-12-07T19:29:31;33.35;;;12.43;;
34982;SDS011;21187;50.976;13.720;2023-12-07T19:34:34;28.40;;;14.30;;
34982;SDS011;21187;50.976;13.720;2023-12-07T19:39:36;29.95;;;13.10;;
34982;SDS011;21187;50.976;13.720;2023-12-07T19:44:38;28.13;;;12.90;;
34982;SDS011;21187;50.976;13.720;2023-12-07T19:49:43;27.15;;;12.40;;
34982;SDS011;21187;50.976;13.720;2023-12-07T19:54:46;28.05;;;13.15;;
34982;SDS011;21187;50.976;13.720;2023-12-07T19:59:48;23.20;;;11.25;;
34982;SDS011;21187;50.976;13.720;2023-12-07T20:04:50;28.60;;;13.07;;
34982;SDS011;21187;50.976;13.720;2023-12-07T20:09:53;27.48;;;13.00;;
34982;SDS011;21187;50.976;13.720;2023-12-07T20:14:55;33.40;;;14.65;;
34982;SDS011;21187;50.976;13.720;2023-12-07T20:19:57;36.10;;;14.63;;
34982;SDS011;21187;50.976;13.720;2023-12-07T20:24:59;31.50;;;14.13;;
34982;SDS011;21187;50.976;13.720;2023-12-07T20:30:01;27.85;;;12.88;;
34982;SDS011;21187;50.976;13.720;2023-12-07T20:35:03;27.55;;;13.27;;
34982;SDS011;21187;50.976;13.720;2023-12-07T20:40:06;34.60;;;13.45;;
34982;SDS011;21187;50.976;13.720;2023-12-07T20:45:08;36.55;;;14.60;;
34982;SDS011;21187;50.976;13.720;2023-12-07T20:50:10;28.58;;;14.13;;
34982;SDS011;21187;50.976;13.720;2023-12-07T20:55:13;32.33;;;14.60;;
34982;SDS011;21187;50.976;13.720;2023-12-07T21:00:15;26.92;;;13.23;;
34982;SDS011;21187;50.976;13.720;2023-12-07T21:05:17;30.30;;;12.90;;
34982;SDS011;21187;50.976;13.720;2023-12-07T21:10:19;30.40;;;12.18;;
34982;SDS011;21187;50.976;13.720;2023-12-07T21:15:25;33.28;;;12.63;;
34982;SDS011;21187;50.976;13.720;2023-12-07T21:20:27;27.08;;;12.77;;
34982;SDS011;21187;50.976;13.720;2023-12-07T21:25:29;23.20;;;11.10;;
34982;SDS011;21187;50.976;13.720;2023-12-07T21:30:31;21.80;;;11.15;;
34982;SDS011;21187;50.976;13.720;2023-12-07T21:35:33;27.48;;;11.45;;
34982;SDS011;21187;50.976;13.720;2023-12-07T21:40:35;26.23;;;11.85;;
34982;SDS011;21187;50.976;13.720;2023-12-07T21:45:37;23.27;;;10.82;;
34982;SDS011;21187;50.976;13.720;2023-12-07T21:50:39;23.55;;;11.40;;
34982;SDS011;21187;50.976;13.720;2023-12-07T21:55:41;23.60;;;11.32;;
34982;SDS011;21187;50.976;13.720;2023-12-07T22:00:43;20.67;;;10.43;;
34982;SDS011;21187;50.976;13.720;2023-12-07T22:05:44;23.88;;;11.60;;
34982;SDS011;21187;50.976;13.720;2023-12-07T22:10:46;25.25;;;11.48;;
34982;SDS011;21187;50.976;13.720;2023-12-07T22:15:48;24.05;;;10.77;;
34982;SDS011;21187;50.976;13.720;2023-12-07T22:20:50;24.42;;;11.15;;
34982;SDS011;21187;50.976;13.720;2023-12-07T22:25:52;27.40;;;11.07;;
34982;SDS011;21187;50.976;13.720;2023-12-07T22:30:54;24.23;;;11.40;;
34982;SDS011;21187;50.976;13.720;2023-12-07T22:35:56;25.02;;;11.20;;
34982;SDS011;21187;50.976;13.720;2023-12-07T22:40:58;21.90;;;10.32;;
34982;SDS011;21187;50.976;13.720;2023-12-07T22:46:00;21.70;;;11.73;;
34982;SDS011;21187;50.976;13.720;2023-12-07T22:51:02;22.30;;;11.10;;
34982;SDS011;21187;50.976;13.720;2023-12-07T22:56:04;23.05;;;10.07;;
34982;SDS011;21187;50.976;13.720;2023-12-07T23:01:06;23.23;;;11.07;;
34982;SDS011;21187;50.976;13.720;2023-12-07T23:06:08;26.77;;;12.68;;
34982;SDS011;21187;50.976;13.720;2023-12-07T23:11:10;26.48;;;11.65;;
34982;SDS011;21187;50.976;13.720;2023-12-07T23:16:14;45.42;;;16.48;;
34982;SDS011;21187;50.976;13.720;2023-12-07T23:21:16;44.13;;;16.23;;
34982;SDS011;21187;50.976;13.720;2023-12-07T23:26:17;44.40;;;17.90;;
34982;SDS011;21187;50.976;13.720;2023-12-07T23:31:19;48.65;;;16.60;;
34982;SDS011;21187;50.976;13.720;2023-12-07T23:36:21;42.90;;;16.65;;
34982;SDS011;21187;50.976;13.720;2023-12-07T23:41:23;35.58;;;14.20;;
34982;SDS011;21187;50.976;13.720;2023-12-07T23:46:25;39.05;;;14.48;;
34982;SDS011;21187;50.976;13.720;2023-12-07T23:51:27;32.55;;;13.13;;
34982;SDS011;21187;50.976;13.720;2023-12-07T23:56:29;32.47;;;13.18;;
